createdAt,value
2023-04-26T00:01:45.932Z,10.65
2023-04-26T00:04:12.705Z,3.47
2023-04-26T00:06:39.344Z,6.53
2023-04-26T00:09:05.735Z,5.53
2023-04-26T00:11:32.211Z,5.25
2023-04-26T00:13:59.196Z,5.18
2023-04-26T00:16:25.728Z,4.32
2023-04-26T00:18:52.513Z,3.43
2023-04-26T00:21:19.214Z,6.75
2023-04-26T00:23:45.604Z,3.55
2023-04-26T00:26:11.931Z,9.32
2023-04-26T00:28:38.277Z,4.40
2023-04-26T00:31:04.734Z,5.10
2023-04-26T00:33:31.289Z,4.55
2023-04-26T00:35:57.663Z,8.00
2023-04-26T00:38:24.231Z,3.97
2023-04-26T00:40:50.663Z,5.80
2023-04-26T00:43:17.078Z,8.20
2023-04-26T00:45:43.580Z,7.60
2023-04-26T00:48:10.028Z,3.63
2023-04-26T00:50:36.445Z,3.42
2023-04-26T00:53:03.788Z,3.83
2023-04-26T00:55:30.269Z,2.50
2023-04-26T00:57:56.687Z,7.07
2023-04-26T01:00:23.187Z,5.28
2023-04-26T01:02:49.796Z,6.63
2023-04-26T01:05:16.551Z,7.38
2023-04-26T01:07:43.369Z,2.80
2023-04-26T01:10:10.372Z,4.63
2023-04-26T01:12:38.426Z,6.00
2023-04-26T01:15:06.250Z,3.47
2023-04-26T01:17:32.712Z,7.43
2023-04-26T01:19:59.179Z,4.43
2023-04-26T01:22:25.554Z,5.57
2023-04-26T01:24:54.885Z,5.72
2023-04-26T01:27:21.315Z,5.47
2023-04-26T01:29:47.738Z,2.55
2023-04-26T01:32:14.203Z,5.03
2023-04-26T01:34:40.515Z,4.70
2023-04-26T01:37:07.694Z,4.50
2023-04-26T01:39:34.898Z,5.15
2023-04-26T01:42:02.852Z,4.57
2023-04-26T01:44:29.189Z,4.13
2023-04-26T01:46:55.986Z,4.15
2023-04-26T01:49:22.518Z,7.22
2023-04-26T01:51:48.920Z,5.70
2023-04-26T01:54:15.655Z,3.97
2023-04-26T01:56:42.138Z,4.73
2023-04-26T01:59:08.481Z,3.72
2023-04-26T02:01:35.060Z,3.88
2023-04-26T02:04:01.534Z,5.07
2023-04-26T02:06:27.915Z,5.38
2023-04-26T02:08:54.442Z,5.50
2023-04-26T02:11:21.175Z,5.75
2023-04-26T02:13:47.664Z,4.00
2023-04-26T02:16:16.470Z,6.07
2023-04-26T02:18:42.919Z,3.35
2023-04-26T02:21:11.566Z,4.33
2023-04-26T02:23:38.150Z,2.97
2023-04-26T02:26:04.982Z,5.10
2023-04-26T02:28:31.607Z,4.35
2023-04-26T02:30:58.479Z,3.95
2023-04-26T02:33:25.066Z,3.17
2023-04-26T02:35:51.497Z,5.28
2023-04-26T02:38:17.899Z,3.63
2023-04-26T02:40:44.223Z,3.28
2023-04-26T02:43:10.797Z,4.15
2023-04-26T02:45:43.706Z,4.93
2023-04-26T02:48:10.115Z,4.47
2023-04-26T02:50:36.592Z,5.95
2023-04-26T02:53:03.612Z,5.35
2023-04-26T02:55:29.959Z,4.40
2023-04-26T02:57:56.387Z,6.17
2023-04-26T03:00:23.557Z,6.35
2023-04-26T03:02:50.038Z,6.60
2023-04-26T03:05:16.487Z,7.00
2023-04-26T03:07:42.899Z,6.13
2023-04-26T03:10:09.854Z,14.27
2023-04-26T03:12:36.258Z,5.90
2023-04-26T03:15:04.237Z,4.03
2023-04-26T03:17:30.650Z,6.00
2023-04-26T03:19:57.204Z,3.75
2023-04-26T03:22:23.561Z,6.07
2023-04-26T03:24:49.977Z,5.18
2023-04-26T03:27:16.634Z,7.32
2023-04-26T03:29:44.233Z,8.20
2023-04-26T03:32:11.032Z,5.40
2023-04-26T03:34:37.517Z,8.87
2023-04-26T03:37:03.898Z,4.03
2023-04-26T03:39:30.206Z,8.35
2023-04-26T03:41:56.574Z,5.10
2023-04-26T03:44:22.884Z,8.40
2023-04-26T03:46:49.269Z,8.60
2023-04-26T03:49:15.652Z,9.85
2023-04-26T03:51:42.176Z,7.68
2023-04-26T03:54:08.545Z,7.63
2023-04-26T03:56:34.941Z,9.25
2023-04-26T03:59:01.379Z,9.63
2023-04-26T04:01:28.426Z,9.43
2023-04-26T04:03:54.914Z,12.15
2023-04-26T04:06:21.835Z,8.85
2023-04-26T04:08:48.549Z,6.22
2023-04-26T04:11:16.669Z,8.40
2023-04-26T04:13:43.257Z,6.53
2023-04-26T04:16:10.342Z,8.38
2023-04-26T04:18:36.937Z,7.07
2023-04-26T04:21:03.467Z,10.30
2023-04-26T04:23:29.886Z,5.87
2023-04-26T04:25:56.340Z,7.13
2023-04-26T04:28:23.216Z,7.25
2023-04-26T04:30:50.057Z,12.68
2023-04-26T04:33:17.832Z,8.32
2023-04-26T04:35:45.072Z,8.47
2023-04-26T04:38:11.453Z,9.90
2023-04-26T04:40:37.860Z,9.98
2023-04-26T04:43:04.253Z,5.82
2023-04-26T04:45:30.644Z,9.20
2023-04-26T04:47:57.195Z,9.13
2023-04-26T04:50:24.137Z,16.70
2023-04-26T04:52:50.616Z,9.15
2023-04-26T04:55:16.936Z,10.85
2023-04-26T04:57:43.394Z,9.65
2023-04-26T05:00:10.749Z,8.50
2023-04-26T05:02:37.659Z,7.05
2023-04-26T05:05:05.400Z,6.00
2023-04-26T05:07:32.738Z,9.98
2023-04-26T05:10:00.016Z,5.22
2023-04-26T05:12:26.831Z,11.13
2023-04-26T05:14:53.289Z,6.47
2023-04-26T05:17:19.995Z,10.82
2023-04-26T05:19:47.155Z,7.38
2023-04-26T05:22:18.253Z,7.90
2023-04-26T05:24:48.310Z,10.17
2023-04-26T05:27:14.765Z,6.00
2023-04-26T05:29:41.625Z,6.47
2023-04-26T05:32:08.116Z,7.72
2023-04-26T05:34:34.650Z,7.93
2023-04-26T05:37:01.161Z,8.07
2023-04-26T05:39:27.537Z,6.10
2023-04-26T05:41:53.933Z,10.55
2023-04-26T05:44:20.320Z,6.63
2023-04-26T05:46:47.332Z,5.63
2023-04-26T05:49:13.681Z,7.33
2023-04-26T05:51:40.116Z,7.88
2023-04-26T05:54:06.518Z,7.82
2023-04-26T05:56:32.959Z,4.35
2023-04-26T05:58:59.317Z,4.78
2023-04-26T06:01:25.919Z,11.73
2023-04-26T06:03:54.208Z,5.00
2023-04-26T06:06:22.603Z,6.13
2023-04-26T06:08:48.951Z,5.85
2023-04-26T06:11:15.317Z,5.72
2023-04-26T06:13:41.797Z,4.27
2023-04-26T06:16:08.216Z,4.10
2023-04-26T06:18:34.618Z,11.10
2023-04-26T06:21:01.042Z,8.13
2023-04-26T06:23:27.380Z,7.03
2023-04-26T06:25:53.758Z,5.37
2023-04-26T06:28:20.152Z,6.10
2023-04-26T06:30:46.579Z,4.25
2023-04-26T06:33:13.031Z,6.45
2023-04-26T06:35:42.186Z,10.05
2023-04-26T06:38:09.099Z,4.00
2023-04-26T06:40:37.139Z,6.38
2023-04-26T06:43:03.525Z,7.85
2023-04-26T06:45:30.729Z,4.18
2023-04-26T06:47:57.777Z,6.30
2023-04-26T06:50:24.199Z,7.07
2023-04-26T06:52:51.443Z,4.63
2023-04-26T06:55:18.835Z,2.63
2023-04-26T06:57:45.236Z,5.30
2023-04-26T07:00:12.801Z,3.65
2023-04-26T07:02:39.206Z,5.37
2023-04-26T07:05:06.281Z,5.43
2023-04-26T07:07:32.878Z,4.75
2023-04-26T07:09:59.224Z,4.95
2023-04-26T07:12:25.665Z,4.38
2023-04-26T07:14:52.026Z,2.63
2023-04-26T07:17:18.437Z,2.88
2023-04-26T07:19:44.858Z,3.95
2023-04-26T07:22:12.054Z,3.25
2023-04-26T07:24:38.393Z,1.90
2023-04-26T07:27:04.769Z,6.20
2023-04-26T07:29:31.262Z,3.55
2023-04-26T07:31:58.810Z,3.40
2023-04-26T07:34:25.374Z,3.95
2023-04-26T07:36:51.828Z,3.20
2023-04-26T07:39:18.240Z,2.33
2023-04-26T07:41:44.660Z,6.15
2023-04-26T07:44:11.376Z,3.40
2023-04-26T07:46:37.785Z,2.17
2023-04-26T07:49:04.186Z,5.88
2023-04-26T07:51:30.621Z,3.00
2023-04-26T07:53:57.094Z,2.15
2023-04-26T07:56:24.309Z,3.88
2023-04-26T07:58:50.783Z,2.13
2023-04-26T08:01:17.270Z,3.13
2023-04-26T08:03:43.783Z,3.10
2023-04-26T08:06:10.702Z,3.70
2023-04-26T08:08:44.671Z,3.30
2023-04-26T08:11:11.696Z,2.45
2023-04-26T08:13:38.191Z,1.75
2023-04-26T08:16:05.220Z,2.67
2023-04-26T08:18:31.676Z,2.28
2023-04-26T08:20:58.391Z,2.08
2023-04-26T08:23:24.936Z,2.63
2023-04-26T08:25:51.464Z,3.22
2023-04-26T08:28:17.867Z,3.63
2023-04-26T08:30:44.363Z,3.33
2023-04-26T08:33:11.033Z,5.72
2023-04-26T08:35:37.390Z,1.30
2023-04-26T08:38:03.955Z,2.03
2023-04-26T08:40:30.782Z,3.53
2023-04-26T08:42:57.320Z,2.33
2023-04-26T08:45:24.764Z,2.65
2023-04-26T08:47:53.551Z,1.10
2023-04-26T08:50:22.065Z,1.60
2023-04-26T08:52:51.418Z,2.20
2023-04-26T08:55:20.033Z,4.85
2023-04-26T08:57:48.053Z,3.95
2023-04-26T09:00:16.120Z,1.48
2023-04-26T09:02:47.236Z,5.95
2023-04-26T09:05:14.364Z,2.87
2023-04-26T09:07:44.140Z,3.45
2023-04-26T09:10:12.344Z,6.63
2023-04-26T09:12:39.002Z,1.85
2023-04-26T09:15:09.901Z,3.33
2023-04-26T09:17:38.924Z,2.13
2023-04-26T09:20:21.215Z,4.50
2023-04-26T09:22:49.133Z,0.98
2023-04-26T09:25:17.817Z,1.65
2023-04-26T09:27:44.747Z,1.50
2023-04-26T09:30:17.522Z,3.20
2023-04-26T09:33:03.973Z,0.98
2023-04-26T09:35:38.754Z,2.95
2023-04-26T09:38:15.102Z,0.95
2023-04-26T09:40:43.851Z,3.42
2023-04-26T09:43:16.746Z,1.93
2023-04-26T09:45:51.083Z,1.83
2023-04-26T09:48:33.207Z,1.45
2023-04-26T09:51:09.364Z,6.00
2023-04-26T09:53:46.423Z,2.97
2023-04-26T09:56:14.002Z,2.60
2023-04-26T09:58:46.345Z,0.70
2023-04-26T10:01:16.083Z,0.82
2023-04-26T10:03:43.966Z,2.30
2023-04-26T10:06:12.579Z,1.88
2023-04-26T10:08:39.259Z,1.93
2023-04-26T10:11:07.637Z,0.73
2023-04-26T10:13:34.973Z,3.22
2023-04-26T10:16:02.180Z,1.17
2023-04-26T10:18:29.255Z,0.60
2023-04-26T10:20:59.943Z,1.80
2023-04-26T10:23:27.300Z,2.05
2023-04-26T10:25:55.031Z,3.00
2023-04-26T10:28:43.979Z,1.70
2023-04-26T10:31:10.508Z,1.23
2023-04-26T10:33:37.175Z,2.50
2023-04-26T10:36:08.053Z,1.15
2023-04-26T10:38:36.618Z,4.35
2023-04-26T10:41:30.158Z,3.22
2023-04-26T10:43:57.060Z,1.33
2023-04-26T10:46:40.592Z,1.27
2023-04-26T10:49:14.858Z,2.25
2023-04-26T10:51:41.653Z,1.83
2023-04-26T10:54:08.105Z,3.10
2023-04-26T10:56:41.041Z,2.97
2023-04-26T10:59:28.357Z,4.73
2023-04-26T11:01:55.775Z,0.75
2023-04-26T11:04:22.355Z,1.77
2023-04-26T11:06:55.686Z,2.60
2023-04-26T11:09:42.387Z,1.98
2023-04-26T11:12:14.024Z,2.00
2023-04-26T11:14:45.599Z,1.10
2023-04-26T11:17:13.180Z,1.42
2023-04-26T11:19:41.682Z,2.80
2023-04-26T11:22:08.430Z,2.60
2023-04-26T11:24:41.592Z,4.80
2023-04-26T11:27:11.962Z,2.08
2023-04-26T11:29:38.904Z,4.22
2023-04-26T11:32:05.677Z,1.35
2023-04-26T11:34:36.451Z,1.17
2023-04-26T11:37:04.819Z,1.03
2023-04-26T11:39:32.691Z,2.33
2023-04-26T11:42:10.133Z,1.88
2023-04-26T11:44:37.607Z,3.17
2023-04-26T11:47:05.664Z,2.10
2023-04-26T11:49:33.406Z,0.77
2023-04-26T11:52:00.301Z,2.00
2023-04-26T11:54:30.874Z,1.08
2023-04-26T11:56:58.604Z,1.98
2023-04-26T11:59:29.711Z,2.05
2023-04-26T12:01:57.556Z,2.30
2023-04-26T12:04:30.989Z,2.55
2023-04-26T12:06:58.189Z,3.50
2023-04-26T12:09:29.479Z,1.75
2023-04-26T12:11:59.991Z,1.75
2023-04-26T12:14:36.711Z,4.93
2023-04-26T12:17:04.530Z,0.98
2023-04-26T12:19:37.320Z,3.90
2023-04-26T12:22:04.530Z,1.63
2023-04-26T12:24:36.973Z,0.70
2023-04-26T12:27:06.002Z,0.90
2023-04-26T12:29:32.932Z,1.55
2023-04-26T12:31:59.869Z,1.83
2023-04-26T12:34:26.310Z,2.58
2023-04-26T12:36:53.022Z,1.80
2023-04-26T12:39:19.413Z,2.97
2023-04-26T12:41:46.505Z,3.25
2023-04-26T12:44:14.263Z,0.85
2023-04-26T12:46:40.790Z,1.45
2023-04-26T12:49:07.513Z,0.85
2023-04-26T12:51:33.913Z,0.90
2023-04-26T12:54:00.293Z,1.13
2023-04-26T12:56:26.836Z,1.35
2023-04-26T12:58:53.323Z,2.90
2023-04-26T13:01:19.817Z,1.92
2023-04-26T13:03:46.486Z,2.50
2023-04-26T13:06:13.112Z,2.40
2023-04-26T13:08:39.598Z,2.33
2023-04-26T13:11:05.928Z,2.38
2023-04-26T13:13:43.004Z,3.33
2023-04-26T13:16:10.688Z,1.13
2023-04-26T13:18:37.047Z,3.63
2023-04-26T13:21:03.544Z,8.18
2023-04-26T13:23:29.944Z,2.05
2023-04-26T13:25:56.405Z,2.50
2023-04-26T13:28:22.780Z,1.27
2023-04-26T13:30:49.183Z,2.47
2023-04-26T13:33:15.740Z,5.15
2023-04-26T13:35:42.225Z,2.92
2023-04-26T13:38:08.630Z,3.20
2023-04-26T13:40:37.050Z,2.60
2023-04-26T13:43:03.922Z,1.50
2023-04-26T13:45:30.469Z,1.00
2023-04-26T13:47:56.920Z,2.30
2023-04-26T13:50:23.396Z,2.45
2023-04-26T13:52:52.064Z,1.10
2023-04-26T13:55:18.698Z,3.00
2023-04-26T13:57:45.063Z,2.35
2023-04-26T14:00:12.274Z,0.98
2023-04-26T14:02:38.838Z,1.85
2023-04-26T14:05:05.925Z,4.27
2023-04-26T14:07:32.299Z,1.23
2023-04-26T14:09:58.660Z,3.00
2023-04-26T14:12:25.060Z,2.13
2023-04-26T14:14:51.668Z,3.25
2023-04-26T14:17:18.029Z,4.33
2023-04-26T14:19:44.442Z,4.22
2023-04-26T14:22:12.809Z,2.10
2023-04-26T14:24:39.308Z,2.30
2023-04-26T14:27:05.891Z,1.52
2023-04-26T14:29:32.342Z,1.17
2023-04-26T14:31:58.833Z,2.83
2023-04-26T14:34:26.302Z,3.35
2023-04-26T14:36:52.630Z,2.10
2023-04-26T14:39:19.004Z,3.00
2023-04-26T14:41:45.319Z,2.40
2023-04-26T14:44:11.773Z,3.83
2023-04-26T14:46:38.284Z,1.95
2023-04-26T14:49:04.666Z,1.77
2023-04-26T14:51:32.533Z,1.55
2023-04-26T14:53:59.390Z,4.03
2023-04-26T14:56:25.804Z,1.48
2023-04-26T14:58:52.180Z,1.77
2023-04-26T15:01:18.593Z,3.95
2023-04-26T15:03:45.177Z,2.38
2023-04-26T15:06:11.786Z,1.20
2023-04-26T15:08:38.169Z,3.22
2023-04-26T15:11:04.612Z,3.88
2023-04-26T15:13:31.001Z,1.88
2023-04-26T15:15:57.334Z,1.92
2023-04-26T15:18:23.720Z,2.87
2023-04-26T15:20:50.128Z,1.63
2023-04-26T15:23:16.805Z,2.13
2023-04-26T15:25:43.433Z,3.05
2023-04-26T15:28:09.821Z,0.98
2023-04-26T15:30:36.396Z,2.27
2023-04-26T15:33:03.087Z,2.13
2023-04-26T15:35:29.605Z,1.75
2023-04-26T15:37:56.065Z,2.97
2023-04-26T15:40:22.513Z,6.20
2023-04-26T15:42:49.205Z,1.47
2023-04-26T15:45:15.656Z,2.17
2023-04-26T15:47:42.236Z,5.18
2023-04-26T15:50:09.094Z,1.65
2023-04-26T15:52:38.532Z,2.22
2023-04-26T15:55:07.180Z,4.70
2023-04-26T15:57:34.619Z,1.63
2023-04-26T16:00:01.718Z,3.15
2023-04-26T16:02:28.331Z,4.60
2023-04-26T16:04:55.075Z,2.22
2023-04-26T16:07:21.593Z,2.97
2023-04-26T16:09:47.985Z,0.63
2023-04-26T16:12:14.375Z,1.48
2023-04-26T16:14:41.052Z,3.67
2023-04-26T16:17:07.547Z,1.17
2023-04-26T16:19:33.914Z,1.73
2023-04-26T16:22:00.527Z,4.35
2023-04-26T16:24:27.000Z,3.38
2023-04-26T16:26:53.370Z,3.50
2023-04-26T16:29:19.787Z,2.17
2023-04-26T16:31:46.304Z,2.17
2023-04-26T16:34:12.693Z,2.70
2023-04-26T16:36:39.013Z,2.80
2023-04-26T16:39:06.054Z,2.33
2023-04-26T16:41:32.527Z,2.10
2023-04-26T16:43:58.939Z,3.33
2023-04-26T16:46:25.359Z,4.88
2023-04-26T16:48:51.820Z,2.40
2023-04-26T16:51:18.288Z,1.17
2023-04-26T16:53:44.600Z,3.13
2023-04-26T16:56:11.009Z,2.13
2023-04-26T16:58:37.493Z,1.65
2023-04-26T17:01:04.640Z,2.10
2023-04-26T17:03:31.382Z,3.67
2023-04-26T17:05:58.206Z,1.27
2023-04-26T17:08:24.560Z,5.03
2023-04-26T17:10:51.897Z,4.35
2023-04-26T17:13:18.898Z,2.30
2023-04-26T17:15:46.091Z,6.60
2023-04-26T17:18:12.732Z,4.63
2023-04-26T17:20:39.280Z,3.77
2023-04-26T17:23:05.804Z,1.20
2023-04-26T17:25:32.228Z,2.22
2023-04-26T17:27:58.923Z,2.55
2023-04-26T17:30:25.544Z,1.83
2023-04-26T17:32:51.993Z,1.70
2023-04-26T17:35:18.437Z,2.47
2023-04-26T17:37:49.776Z,4.70
2023-04-26T17:40:17.234Z,4.40
2023-04-26T17:42:43.907Z,1.67
2023-04-26T17:45:13.615Z,3.50
2023-04-26T17:47:41.389Z,1.73
2023-04-26T17:50:08.650Z,1.42
2023-04-26T17:52:35.367Z,1.85
2023-04-26T17:55:01.884Z,4.70
2023-04-26T17:57:28.320Z,1.77
2023-04-26T17:59:54.779Z,2.78
2023-04-26T18:02:21.313Z,3.00
2023-04-26T18:04:48.057Z,1.83
2023-04-26T18:07:15.117Z,2.63
2023-04-26T18:09:41.805Z,2.50
2023-04-26T18:12:08.291Z,2.60
2023-04-26T18:14:34.698Z,2.53
2023-04-26T18:17:01.181Z,4.45
2023-04-26T18:19:27.570Z,2.67
2023-04-26T18:21:54.054Z,3.63
2023-04-26T18:24:20.428Z,2.33
2023-04-26T18:26:46.764Z,2.05
2023-04-26T18:29:13.149Z,3.38
2023-04-26T18:31:39.589Z,1.92
2023-04-26T18:34:06.824Z,2.30
2023-04-26T18:36:33.239Z,1.33
2023-04-26T18:39:00.970Z,4.22
2023-04-26T18:41:27.684Z,2.45
2023-04-26T18:43:54.510Z,2.72
2023-04-26T18:46:21.375Z,3.53
2023-04-26T18:48:47.860Z,3.85
2023-04-26T18:51:14.410Z,3.83
2023-04-26T18:53:40.900Z,4.03
2023-04-26T18:56:07.323Z,3.10
2023-04-26T18:58:34.328Z,1.83
2023-04-26T19:01:01.011Z,2.28
2023-04-26T19:03:27.526Z,6.13
2023-04-26T19:05:54.097Z,3.45
2023-04-26T19:08:20.909Z,3.35
2023-04-26T19:10:47.260Z,2.10
2023-04-26T19:13:13.577Z,2.55
2023-04-26T19:15:40.115Z,1.98
2023-04-26T19:18:06.514Z,1.88
2023-04-26T19:20:32.868Z,2.90
2023-04-26T19:22:59.274Z,3.13
2023-04-26T19:25:26.650Z,3.83
2023-04-26T19:27:52.991Z,2.53
2023-04-26T19:30:19.459Z,4.85
2023-04-26T19:32:45.847Z,4.35
2023-04-26T19:35:12.272Z,3.23
2023-04-26T19:37:38.681Z,5.40
2023-04-26T19:40:10.044Z,5.32
2023-04-26T19:42:36.514Z,4.07
2023-04-26T19:45:03.015Z,3.40
2023-04-26T19:47:29.476Z,3.03
2023-04-26T19:49:57.583Z,2.42
2023-04-26T19:52:23.985Z,2.22
2023-04-26T19:54:53.841Z,2.40
2023-04-26T19:57:21.149Z,3.90
2023-04-26T19:59:47.905Z,2.10
2023-04-26T20:02:14.430Z,2.95
2023-04-26T20:04:41.073Z,4.32
2023-04-26T20:07:07.473Z,4.18
2023-04-26T20:09:34.602Z,2.95
2023-04-26T20:12:01.007Z,5.00
2023-04-26T20:14:30.018Z,3.00
2023-04-26T20:16:56.527Z,2.55
2023-04-26T20:19:23.386Z,4.68
2023-04-26T20:21:49.781Z,6.65
2023-04-26T20:24:16.316Z,3.00
2023-04-26T20:26:42.792Z,2.58
2023-04-26T20:29:09.415Z,5.18
2023-04-26T20:31:36.156Z,4.28
2023-04-26T20:34:02.632Z,5.72
2023-04-26T20:36:29.029Z,5.17
2023-04-26T20:38:55.831Z,1.73
2023-04-26T20:41:22.212Z,4.22
2023-04-26T20:43:49.157Z,3.90
2023-04-26T20:46:16.187Z,3.15
2023-04-26T20:48:42.538Z,3.17
2023-04-26T20:51:08.963Z,5.13
2023-04-26T20:53:35.304Z,4.13
2023-04-26T20:56:01.689Z,4.75
2023-04-26T20:58:29.678Z,4.75
2023-04-26T21:00:56.076Z,2.97
2023-04-26T21:03:22.774Z,3.25
2023-04-26T21:05:49.412Z,5.80
2023-04-26T21:08:15.848Z,3.15
2023-04-26T21:10:42.166Z,2.55
2023-04-26T21:13:08.582Z,3.97
2023-04-26T21:15:35.057Z,7.38
2023-04-26T21:18:01.779Z,5.22
2023-04-26T21:20:28.250Z,4.93
2023-04-26T21:22:54.611Z,4.90
2023-04-26T21:25:21.639Z,5.10
2023-04-26T21:27:48.673Z,5.65
2023-04-26T21:30:15.326Z,3.47
2023-04-26T21:32:41.821Z,10.90
2023-04-26T21:35:08.669Z,6.70
2023-04-26T21:37:35.015Z,5.13
2023-04-26T21:40:01.433Z,5.03
2023-04-26T21:42:27.853Z,6.63
2023-04-26T21:44:54.281Z,5.43
2023-04-26T21:47:20.724Z,4.95
2023-04-26T21:49:47.166Z,4.50
2023-04-26T21:52:13.585Z,4.60
2023-04-26T21:54:40.039Z,5.13
2023-04-26T21:57:06.905Z,3.88
2023-04-26T21:59:33.830Z,6.13
2023-04-26T22:02:01.083Z,5.20
2023-04-26T22:04:27.813Z,4.72
2023-04-26T22:06:54.412Z,4.00
2023-04-26T22:09:21.462Z,3.13
2023-04-26T22:11:47.772Z,3.70
2023-04-26T22:14:14.146Z,3.60
2023-04-26T22:16:40.646Z,5.15
2023-04-26T22:19:07.097Z,5.90
2023-04-26T22:21:33.508Z,4.25
2023-04-26T22:24:00.126Z,3.65
2023-04-26T22:26:26.751Z,6.23
2023-04-26T22:28:53.113Z,2.88
2023-04-26T22:31:19.558Z,3.92
2023-04-26T22:33:46.251Z,6.18
2023-04-26T22:36:12.910Z,3.47
2023-04-26T22:38:39.738Z,3.13
2023-04-26T22:41:07.225Z,4.40
2023-04-26T22:43:34.414Z,4.43
2023-04-26T22:46:01.060Z,3.70
2023-04-26T22:48:27.406Z,4.30
2023-04-26T22:50:53.849Z,4.87
2023-04-26T22:53:20.242Z,4.63
2023-04-26T22:55:46.593Z,3.40
2023-04-26T22:58:13.099Z,3.67
2023-04-26T23:00:39.478Z,4.95
2023-04-26T23:03:06.159Z,5.00
2023-04-26T23:05:32.634Z,4.82
2023-04-26T23:07:59.004Z,3.97
2023-04-26T23:10:25.435Z,4.18
2023-04-26T23:12:51.862Z,4.25
2023-04-26T23:15:18.612Z,3.60
2023-04-26T23:17:45.497Z,3.50
2023-04-26T23:20:12.344Z,5.18
2023-04-26T23:22:40.154Z,5.32
2023-04-26T23:25:07.202Z,3.72
2023-04-26T23:27:33.676Z,5.30
2023-04-26T23:30:00.126Z,4.75
2023-04-26T23:32:26.554Z,4.38
2023-04-26T23:34:52.897Z,4.30
2023-04-26T23:37:19.347Z,5.78
2023-04-26T23:39:45.828Z,6.47
2023-04-26T23:42:12.774Z,5.30
2023-04-26T23:44:39.115Z,10.30
2023-04-26T23:47:05.652Z,6.13
2023-04-26T23:49:32.041Z,6.60
2023-04-26T23:51:58.360Z,7.40
2023-04-26T23:54:24.782Z,4.97
2023-04-26T23:56:51.161Z,5.57
2023-04-26T23:59:17.527Z,4.25
